createdAt,value
2019-03-10T00:00:45.922Z,1.40
2019-03-10T00:03:18.068Z,1.87
2019-03-10T00:05:48.602Z,1.47
2019-03-10T00:08:19.039Z,1.63
2019-03-10T00:10:52.020Z,1.50
2019-03-10T00:13:22.508Z,1.53
2019-03-10T00:15:53.059Z,1.30
2019-03-10T00:18:23.564Z,1.30
2019-03-10T00:20:54.144Z,1.50
2019-03-10T00:23:24.752Z,1.10
2019-03-10T00:25:55.432Z,1.03
2019-03-10T00:28:25.845Z,1.27
2019-03-10T00:30:56.398Z,1.13
2019-03-10T00:33:26.882Z,1.03
2019-03-10T00:35:57.382Z,1.40
2019-03-10T00:38:29.708Z,1.53
2019-03-10T00:41:50.310Z,1.57
2019-03-10T00:45:00.402Z,1.20
2019-03-10T00:48:26.502Z,1.23
2019-03-10T00:51:34.371Z,1.27
2019-03-10T00:54:04.991Z,1.70
2019-03-10T00:56:35.510Z,1.10
2019-03-10T00:59:06.095Z,1.13
2019-03-10T01:01:36.656Z,1.53
2019-03-10T01:04:07.221Z,1.37
2019-03-10T01:06:37.782Z,1.57
2019-03-10T01:09:08.523Z,1.50
2019-03-10T01:11:41.405Z,1.40
2019-03-10T01:14:14.339Z,1.47
2019-03-10T01:16:44.571Z,1.23
2019-03-10T01:19:15.519Z,1.30
2019-03-10T01:21:48.529Z,1.33
2019-03-10T01:24:19.030Z,1.63
2019-03-10T01:26:50.448Z,1.47
2019-03-10T01:29:20.954Z,1.70
2019-03-10T01:32:38.785Z,2.03
2019-03-10T01:35:15.025Z,1.93
2019-03-10T01:37:45.561Z,1.57
2019-03-10T01:40:16.087Z,1.50
2019-03-10T01:42:46.573Z,1.40
2019-03-10T01:45:17.413Z,1.43
2019-03-10T01:47:47.886Z,1.43
2019-03-10T01:50:18.518Z,1.93
2019-03-10T01:52:49.053Z,2.10
2019-03-10T01:55:19.532Z,1.90
2019-03-10T01:57:50.341Z,1.30
2019-03-10T02:00:20.810Z,1.37
2019-03-10T02:02:51.253Z,1.40
2019-03-10T02:05:21.712Z,1.50
2019-03-10T02:07:54.402Z,1.40
2019-03-10T02:10:25.200Z,1.30
2019-03-10T02:12:55.665Z,1.13
2019-03-10T02:15:26.190Z,1.23
2019-03-10T02:17:58.866Z,1.20
2019-03-10T02:20:31.746Z,1.30
2019-03-10T02:23:02.170Z,1.10
2019-03-10T02:25:32.734Z,1.13
2019-03-10T02:28:03.202Z,1.00
2019-03-10T02:30:33.800Z,1.40
2019-03-10T02:33:04.385Z,1.37
2019-03-10T02:35:35.136Z,1.37
2019-03-10T02:38:05.660Z,1.20
2019-03-10T02:40:36.268Z,1.23
2019-03-10T02:43:06.747Z,1.30
2019-03-10T02:45:37.360Z,1.30
2019-03-10T02:48:07.820Z,1.10
2019-03-10T02:50:38.358Z,1.63
2019-03-10T02:53:08.894Z,1.43
2019-03-10T02:55:39.479Z,1.50
2019-03-10T02:58:10.376Z,1.57
2019-03-10T03:00:41.026Z,1.30
2019-03-10T03:03:13.633Z,1.30
2019-03-10T03:05:45.186Z,1.30
2019-03-10T03:08:17.079Z,0.97
2019-03-10T03:10:47.619Z,1.23
2019-03-10T03:13:18.184Z,1.93
2019-03-10T03:15:48.688Z,1.30
2019-03-10T03:18:19.297Z,1.20
2019-03-10T03:20:49.703Z,1.10
2019-03-10T03:23:20.216Z,1.40
2019-03-10T03:25:50.807Z,1.20
2019-03-10T03:28:24.497Z,1.30
2019-03-10T03:30:55.031Z,1.60
2019-03-10T03:33:25.671Z,1.20
2019-03-10T03:36:11.270Z,1.60
2019-03-10T03:38:45.200Z,1.47
2019-03-10T03:41:17.303Z,1.60
2019-03-10T03:43:47.782Z,1.50
2019-03-10T03:46:18.199Z,1.50
2019-03-10T03:48:48.805Z,1.30
2019-03-10T03:51:19.307Z,1.27
2019-03-10T03:53:49.802Z,1.40
2019-03-10T03:56:20.493Z,1.57
2019-03-10T03:58:50.974Z,1.43
2019-03-10T04:01:30.828Z,1.30
2019-03-10T04:04:01.631Z,1.53
2019-03-10T04:06:32.191Z,1.47
2019-03-10T04:09:02.635Z,1.43
2019-03-10T04:11:34.776Z,1.60
2019-03-10T04:14:05.373Z,1.23
2019-03-10T04:16:35.805Z,1.70
2019-03-10T04:19:06.323Z,1.70
2019-03-10T04:21:36.840Z,1.50
2019-03-10T04:24:09.566Z,1.50
2019-03-10T04:26:40.123Z,1.33
2019-03-10T04:29:10.696Z,1.40
2019-03-10T04:31:41.312Z,1.40
2019-03-10T04:34:11.794Z,1.73
2019-03-10T04:36:42.357Z,1.60
2019-03-10T04:39:12.959Z,1.43
2019-03-10T04:41:43.545Z,1.30
2019-03-10T04:44:14.144Z,1.70
2019-03-10T04:46:44.783Z,1.30
2019-03-10T04:49:15.336Z,1.50
2019-03-10T04:51:45.908Z,1.50
2019-03-10T04:54:18.262Z,1.27
2019-03-10T04:56:56.283Z,1.60
2019-03-10T04:59:26.734Z,1.30
2019-03-10T05:01:57.234Z,1.43
2019-03-10T05:04:27.810Z,1.73
2019-03-10T05:06:58.288Z,1.60
2019-03-10T05:09:28.834Z,1.77
2019-03-10T05:11:59.559Z,1.67
2019-03-10T05:14:30.019Z,1.77
2019-03-10T05:17:00.574Z,1.40
2019-03-10T05:19:33.481Z,1.60
2019-03-10T05:22:03.928Z,1.40
2019-03-10T05:24:34.489Z,1.67
2019-03-10T05:27:05.002Z,1.90
2019-03-10T05:29:35.607Z,2.10
2019-03-10T05:32:06.078Z,2.20
2019-03-10T05:34:36.982Z,1.90
2019-03-10T05:37:07.609Z,1.83
2019-03-10T05:39:38.082Z,1.53
2019-03-10T05:42:08.584Z,1.70
2019-03-10T05:44:39.109Z,1.47
2019-03-10T05:47:09.649Z,1.70
2019-03-10T05:49:40.099Z,1.60
2019-03-10T05:52:10.631Z,1.67
2019-03-10T05:54:41.107Z,1.47
2019-03-10T05:57:11.647Z,1.60
2019-03-10T05:59:42.163Z,1.80
2019-03-10T06:02:12.709Z,1.30
2019-03-10T06:04:43.542Z,1.27
2019-03-10T06:07:14.013Z,1.60
2019-03-10T06:09:44.509Z,1.17
2019-03-10T06:12:15.053Z,1.43
2019-03-10T06:14:45.582Z,1.50
2019-03-10T06:17:17.053Z,1.97
2019-03-10T06:19:47.500Z,1.80
2019-03-10T06:22:18.101Z,2.00
2019-03-10T06:24:50.962Z,1.50
2019-03-10T06:27:21.452Z,1.57
2019-03-10T06:29:53.301Z,1.40
2019-03-10T06:32:23.862Z,1.30
2019-03-10T06:34:56.428Z,1.50
2019-03-10T06:37:26.978Z,1.40
2019-03-10T06:39:58.540Z,1.37
2019-03-10T06:42:30.028Z,1.40
2019-03-10T06:45:00.551Z,1.60
2019-03-10T06:47:31.252Z,1.43
2019-03-10T06:50:03.964Z,1.60
2019-03-10T06:52:34.503Z,2.30
2019-03-10T06:55:05.275Z,2.07
2019-03-10T06:57:35.763Z,1.47
2019-03-10T07:00:07.478Z,1.40
2019-03-10T07:02:38.069Z,1.37
2019-03-10T07:05:10.145Z,1.70
2019-03-10T07:07:40.840Z,1.80
2019-03-10T07:10:12.995Z,1.70
2019-03-10T07:12:43.550Z,1.50
2019-03-10T07:15:14.315Z,1.37
2019-03-10T07:17:46.197Z,1.53
2019-03-10T07:20:17.446Z,1.70
2019-03-10T07:22:48.010Z,1.60
2019-03-10T07:25:18.469Z,1.70
2019-03-10T07:28:06.357Z,1.20
2019-03-10T07:30:43.568Z,1.10
2019-03-10T07:33:42.272Z,1.27
2019-03-10T07:36:18.724Z,1.13
2019-03-10T07:39:13.618Z,2.00
2019-03-10T07:42:08.231Z,2.30
2019-03-10T07:44:51.131Z,1.40
2019-03-10T07:47:58.474Z,1.40
2019-03-10T07:50:43.016Z,1.40
2019-03-10T07:53:21.304Z,1.40
2019-03-10T07:56:28.560Z,1.40
2019-03-10T07:59:27.179Z,1.47
2019-03-10T08:02:16.513Z,1.23
2019-03-10T08:05:06.015Z,1.17
2019-03-10T08:07:53.917Z,1.23
2019-03-10T08:10:46.488Z,1.43
2019-03-10T08:13:38.820Z,1.20
2019-03-10T08:16:31.149Z,1.20
2019-03-10T08:19:25.100Z,1.03
2019-03-10T08:22:17.437Z,1.37
2019-03-10T08:25:09.254Z,1.20
2019-03-10T08:27:46.356Z,1.53
2019-03-10T08:30:32.187Z,1.30
2019-03-10T08:33:36.735Z,1.70
2019-03-10T08:36:15.201Z,1.57
2019-03-10T08:38:53.908Z,1.70
2019-03-10T08:41:41.756Z,1.20
2019-03-10T08:44:34.063Z,1.40
2019-03-10T08:47:23.912Z,1.47
2019-03-10T08:50:02.194Z,1.60
2019-03-10T08:52:55.658Z,1.67
2019-03-10T08:55:45.062Z,1.40
2019-03-10T08:58:34.469Z,1.40
2019-03-10T09:01:26.973Z,1.33
2019-03-10T09:04:16.366Z,1.47
2019-03-10T09:07:16.509Z,1.40
2019-03-10T09:10:04.587Z,1.70
2019-03-10T09:13:03.210Z,1.30
2019-03-10T09:15:50.205Z,1.60
2019-03-10T09:18:51.737Z,1.80
2019-03-10T09:21:33.120Z,1.60
2019-03-10T09:24:34.633Z,2.03
2019-03-10T09:27:38.911Z,1.70
2019-03-10T09:30:31.604Z,1.67
2019-03-10T09:33:12.784Z,2.20
2019-03-10T09:36:03.285Z,2.07
2019-03-10T09:39:01.562Z,1.80
2019-03-10T09:42:01.490Z,1.43
2019-03-10T09:44:56.876Z,1.70
2019-03-10T09:47:46.330Z,1.83
2019-03-10T09:50:46.819Z,1.77
2019-03-10T09:53:48.192Z,1.80
2019-03-10T09:56:40.411Z,1.40
2019-03-10T09:59:47.578Z,1.73
2019-03-10T10:02:36.398Z,2.30
2019-03-10T10:05:13.629Z,2.30
2019-03-10T10:07:54.872Z,2.20
2019-03-10T10:10:44.328Z,2.20
2019-03-10T10:13:30.392Z,1.70
2019-03-10T10:16:28.989Z,1.60
2019-03-10T10:19:30.587Z,1.83
2019-03-10T10:22:18.692Z,2.03
2019-03-10T10:25:20.069Z,1.83
2019-03-10T10:28:11.993Z,1.77
2019-03-10T10:31:19.645Z,2.17
2019-03-10T10:34:06.887Z,1.57
2019-03-10T10:37:10.759Z,1.50
2019-03-10T10:40:09.389Z,1.80
2019-03-10T10:43:02.012Z,1.70
2019-03-10T10:45:39.976Z,1.73
2019-03-10T10:48:19.910Z,2.03
2019-03-10T10:51:06.124Z,1.50
2019-03-10T10:53:54.174Z,2.13
2019-03-10T10:56:32.468Z,2.03
2019-03-10T10:59:27.769Z,2.30
2019-03-10T11:02:07.077Z,1.90
2019-03-10T11:04:55.368Z,2.03
2019-03-10T11:07:43.280Z,1.90
2019-03-10T11:10:31.055Z,2.07
2019-03-10T11:13:20.079Z,2.07
2019-03-10T11:16:05.930Z,1.70
2019-03-10T11:18:58.418Z,1.80
2019-03-10T11:21:47.876Z,5.07
2019-03-10T11:24:34.369Z,2.50
2019-03-10T11:27:13.455Z,2.53
2019-03-10T11:30:03.087Z,2.10
2019-03-10T11:32:52.669Z,2.10
2019-03-10T11:35:54.320Z,2.70
2019-03-10T11:38:43.739Z,2.60
2019-03-10T11:41:33.435Z,2.03
2019-03-10T11:44:13.620Z,2.20
2019-03-10T11:47:01.541Z,2.20
2019-03-10T11:49:39.986Z,2.40
2019-03-10T11:52:38.410Z,2.43
2019-03-10T11:55:15.888Z,2.03
2019-03-10T11:58:08.132Z,2.17
2019-03-10T12:00:57.608Z,3.10
2019-03-10T12:03:43.525Z,2.10
2019-03-10T12:06:27.250Z,2.10
2019-03-10T12:09:19.536Z,2.20
2019-03-10T12:11:50.660Z,1.93
2019-03-10T12:14:28.783Z,2.03
2019-03-10T12:16:59.367Z,1.63
2019-03-10T12:19:29.880Z,2.17
2019-03-10T12:22:00.409Z,1.97
2019-03-10T12:24:31.124Z,2.30
2019-03-10T12:27:01.614Z,2.00
2019-03-10T12:29:34.092Z,1.87
2019-03-10T12:32:04.740Z,2.07
2019-03-10T12:34:35.253Z,2.30
2019-03-10T12:37:05.779Z,1.70
2019-03-10T12:39:36.190Z,1.33
2019-03-10T12:42:06.799Z,1.70
2019-03-10T12:44:37.301Z,1.40
2019-03-10T12:47:07.755Z,1.60
2019-03-10T12:49:38.354Z,1.50
2019-03-10T12:52:08.989Z,1.73
2019-03-10T12:54:40.420Z,1.20
2019-03-10T12:57:13.474Z,1.63
2019-03-10T12:59:43.931Z,1.10
2019-03-10T13:02:14.486Z,1.30
2019-03-10T13:04:47.442Z,0.97
2019-03-10T13:07:17.915Z,1.50
2019-03-10T13:09:48.383Z,1.90
2019-03-10T13:12:18.799Z,1.30
2019-03-10T13:14:58.971Z,1.60
2019-03-10T13:17:21.480Z,1.30
2019-03-10T13:19:51.946Z,1.73
2019-03-10T13:22:22.377Z,1.60
2019-03-10T13:24:52.883Z,2.27
2019-03-10T13:27:23.421Z,2.37
2019-03-10T13:29:53.894Z,2.00
2019-03-10T13:32:24.410Z,1.90
2019-03-10T13:34:55.877Z,1.93
2019-03-10T13:37:26.307Z,1.97
2019-03-10T13:39:56.862Z,2.50
2019-03-10T13:42:27.318Z,3.63
2019-03-10T13:44:57.887Z,2.17
2019-03-10T13:47:29.338Z,2.40
2019-03-10T13:49:59.876Z,2.53
2019-03-10T13:52:30.382Z,2.33
2019-03-10T13:55:00.851Z,3.50
2019-03-10T13:57:31.387Z,3.30
2019-03-10T14:00:01.942Z,2.80
2019-03-10T14:02:33.249Z,2.70
2019-03-10T14:05:03.701Z,2.27
2019-03-10T14:07:34.304Z,2.43
2019-03-10T14:10:05.472Z,2.50
2019-03-10T14:12:35.983Z,2.60
2019-03-10T14:15:07.010Z,3.00
2019-03-10T14:17:37.998Z,2.80
2019-03-10T14:20:08.641Z,2.60
2019-03-10T14:22:39.171Z,3.83
2019-03-10T14:25:09.975Z,3.10
2019-03-10T14:27:40.807Z,2.90
2019-03-10T14:30:11.419Z,8.20
2019-03-10T14:32:41.974Z,19.33
2019-03-10T14:35:12.533Z,7.60
2019-03-10T14:37:43.138Z,6.40
2019-03-10T14:40:15.281Z,6.10
2019-03-10T14:42:45.795Z,5.70
2019-03-10T14:45:16.675Z,3.40
2019-03-10T14:47:47.188Z,4.17
2019-03-10T14:50:17.860Z,3.87
2019-03-10T14:52:48.295Z,3.20
2019-03-10T14:55:18.848Z,4.10
2019-03-10T14:57:49.353Z,4.70
2019-03-10T15:00:20.993Z,3.70
2019-03-10T15:02:51.649Z,3.63
2019-03-10T15:05:22.318Z,3.10
2019-03-10T15:07:52.836Z,3.40
2019-03-10T15:10:23.406Z,3.60
2019-03-10T15:12:55.703Z,4.13
2019-03-10T15:15:27.227Z,5.07
2019-03-10T15:17:58.001Z,5.93
2019-03-10T15:20:29.087Z,5.53
2019-03-10T15:22:59.639Z,4.47
2019-03-10T15:25:30.193Z,4.80
2019-03-10T15:28:00.685Z,5.00
2019-03-10T15:30:31.341Z,6.20
2019-03-10T15:33:02.001Z,5.10
2019-03-10T15:35:32.564Z,5.47
2019-03-10T15:38:03.129Z,6.30
2019-03-10T15:40:33.777Z,6.03
2019-03-10T15:43:04.520Z,6.50
2019-03-10T15:45:35.052Z,6.23
2019-03-10T15:48:05.569Z,6.33
2019-03-10T15:50:36.132Z,7.60
2019-03-10T15:53:06.563Z,7.20
2019-03-10T15:55:37.181Z,7.30
2019-03-10T15:58:07.679Z,6.83
2019-03-10T16:00:38.139Z,6.23
2019-03-10T16:03:08.677Z,6.57
2019-03-10T16:05:39.178Z,7.00
2019-03-10T16:08:09.621Z,7.03
2019-03-10T16:10:40.205Z,7.27
2019-03-10T16:13:10.722Z,21.97
2019-03-10T16:15:41.291Z,15.57
2019-03-10T16:18:11.772Z,21.47
2019-03-10T16:20:42.273Z,10.43
2019-03-10T16:23:13.008Z,7.67
2019-03-10T16:25:43.542Z,7.50
2019-03-10T16:28:14.095Z,6.53
2019-03-10T16:30:44.603Z,5.30
2019-03-10T16:33:15.148Z,7.30
2019-03-10T16:35:45.626Z,6.47
2019-03-10T16:38:16.141Z,7.47
2019-03-10T16:40:46.793Z,6.77
2019-03-10T16:43:18.325Z,4.93
2019-03-10T16:45:48.951Z,4.83
2019-03-10T16:48:19.642Z,4.17
2019-03-10T16:50:50.379Z,3.87
2019-03-10T16:53:21.043Z,3.40
2019-03-10T16:55:59.178Z,7.37
2019-03-10T16:58:23.714Z,3.20
2019-03-10T17:00:54.186Z,3.37
2019-03-10T17:03:25.807Z,3.80
2019-03-10T17:05:56.605Z,3.70
2019-03-10T17:08:27.242Z,3.47
2019-03-10T17:10:57.664Z,3.40
2019-03-10T17:13:29.099Z,3.30
2019-03-10T17:15:59.584Z,3.47
2019-03-10T17:18:30.235Z,3.57
2019-03-10T17:21:00.762Z,3.40
2019-03-10T17:23:31.448Z,3.90
2019-03-10T17:26:02.072Z,3.50
2019-03-10T17:28:32.633Z,2.90
2019-03-10T17:31:03.236Z,3.13
2019-03-10T17:33:33.720Z,3.30
2019-03-10T17:36:04.229Z,3.33
2019-03-10T17:38:34.680Z,3.10
2019-03-10T17:41:05.450Z,3.17
2019-03-10T17:43:40.753Z,3.57
2019-03-10T17:46:11.318Z,3.17
2019-03-10T17:48:41.867Z,3.03
2019-03-10T17:51:12.364Z,3.67
2019-03-10T17:53:42.975Z,3.50
2019-03-10T17:56:13.521Z,3.50
2019-03-10T17:58:44.072Z,2.80
2019-03-10T18:01:14.584Z,3.53
2019-03-10T18:03:45.005Z,3.50
2019-03-10T18:06:15.563Z,3.63
2019-03-10T18:08:46.112Z,2.80
2019-03-10T18:11:16.626Z,2.93
2019-03-10T18:13:47.145Z,3.43
2019-03-10T18:16:17.782Z,4.03
2019-03-10T18:18:48.224Z,4.80
2019-03-10T18:21:18.813Z,4.77
2019-03-10T18:23:49.390Z,4.00
2019-03-10T18:26:20.066Z,3.57
2019-03-10T18:28:50.562Z,2.40
2019-03-10T18:31:21.037Z,2.63
2019-03-10T18:33:51.547Z,2.60
2019-03-10T18:36:22.106Z,2.70
2019-03-10T18:38:52.653Z,2.90
2019-03-10T18:41:23.215Z,2.60
2019-03-10T18:43:53.700Z,2.60
2019-03-10T18:46:24.213Z,2.10
2019-03-10T18:48:54.764Z,2.70
2019-03-10T18:51:25.273Z,2.87
2019-03-10T18:53:55.700Z,2.15
2019-03-10T18:56:27.355Z,2.07
2019-03-10T18:58:57.836Z,2.57
2019-03-10T19:01:28.321Z,2.20
2019-03-10T19:03:58.767Z,2.10
2019-03-10T19:06:29.281Z,2.73
2019-03-10T19:08:59.846Z,2.43
2019-03-10T19:11:30.394Z,2.80
2019-03-10T19:14:01.424Z,2.97
2019-03-10T19:16:32.315Z,3.00
2019-03-10T19:19:02.856Z,2.73
2019-03-10T19:21:33.460Z,2.63
2019-03-10T19:24:04.091Z,2.83
2019-03-10T19:26:34.703Z,2.43
2019-03-10T19:29:05.349Z,2.70
2019-03-10T19:31:35.882Z,2.20
2019-03-10T19:34:06.641Z,2.73
2019-03-10T19:36:37.228Z,2.93
2019-03-10T19:39:08.098Z,2.63
2019-03-10T19:41:40.214Z,6.07
2019-03-10T19:44:11.878Z,2.90
2019-03-10T19:46:43.647Z,2.30
2019-03-10T19:49:14.297Z,3.13
2019-03-10T19:51:44.899Z,3.00
2019-03-10T19:54:15.488Z,2.77
2019-03-10T19:56:46.107Z,2.60
2019-03-10T19:59:16.818Z,3.07
2019-03-10T20:01:47.452Z,3.33
2019-03-10T20:04:18.056Z,3.83
2019-03-10T20:06:48.719Z,3.53
2019-03-10T20:09:19.438Z,3.10
2019-03-10T20:11:50.094Z,3.63
2019-03-10T20:14:20.629Z,3.20
2019-03-10T20:16:51.229Z,3.53
2019-03-10T20:19:21.752Z,3.13
2019-03-10T20:21:52.316Z,3.10
2019-03-10T20:24:22.915Z,2.77
2019-03-10T20:26:53.531Z,3.30
2019-03-10T20:29:25.032Z,3.23
2019-03-10T20:31:55.506Z,3.10
2019-03-10T20:34:26.156Z,3.50
2019-03-10T20:36:56.641Z,3.00
2019-03-10T20:39:28.285Z,10.63
2019-03-10T20:42:05.140Z,2.73
2019-03-10T20:44:30.977Z,3.67
2019-03-10T20:47:01.757Z,2.43
2019-03-10T20:49:32.523Z,2.60
2019-03-10T20:52:03.084Z,3.00
2019-03-10T20:54:33.632Z,3.00
2019-03-10T20:57:04.395Z,2.77
2019-03-10T20:59:35.070Z,3.03
2019-03-10T21:02:05.900Z,2.90
2019-03-10T21:04:36.982Z,2.47
2019-03-10T21:07:10.117Z,3.00
2019-03-10T21:09:39.791Z,2.40
2019-03-10T21:12:10.433Z,3.00
2019-03-10T21:14:41.044Z,2.93
2019-03-10T21:17:11.683Z,2.43
2019-03-10T21:19:42.798Z,2.50
2019-03-10T21:22:13.359Z,2.33
2019-03-10T21:24:43.911Z,2.20
2019-03-10T21:27:14.413Z,2.30
2019-03-10T21:29:44.864Z,2.53
2019-03-10T21:32:15.348Z,1.87
2019-03-10T21:34:45.891Z,2.10
2019-03-10T21:37:16.349Z,2.57
2019-03-10T21:39:49.261Z,2.00
2019-03-10T21:42:19.104Z,2.03
2019-03-10T21:44:49.730Z,2.20
2019-03-10T21:47:20.336Z,2.60
2019-03-10T21:49:50.955Z,2.30
2019-03-10T21:52:21.600Z,2.80
2019-03-10T21:54:52.214Z,2.23
2019-03-10T21:57:22.668Z,2.80
2019-03-10T21:59:53.301Z,2.83
2019-03-10T22:02:23.936Z,2.30
2019-03-10T22:04:54.386Z,2.60
2019-03-10T22:07:24.926Z,2.90
2019-03-10T22:09:55.612Z,2.43
2019-03-10T22:12:26.237Z,2.67
2019-03-10T22:14:56.916Z,2.93
2019-03-10T22:17:27.446Z,2.93
2019-03-10T22:19:58.095Z,2.80
2019-03-10T22:22:29.648Z,2.20
2019-03-10T22:25:00.415Z,2.40
2019-03-10T22:27:32.607Z,2.77
2019-03-10T22:30:03.120Z,2.90
2019-03-10T22:32:34.223Z,2.30
2019-03-10T22:35:05.166Z,2.47
2019-03-10T22:37:35.663Z,2.40
2019-03-10T22:40:06.609Z,2.47
2019-03-10T22:42:37.067Z,2.67
2019-03-10T22:45:08.396Z,2.37
2019-03-10T22:47:39.008Z,2.70
2019-03-10T22:50:10.571Z,2.10
2019-03-10T22:52:41.236Z,2.13
2019-03-10T22:55:11.987Z,1.53
2019-03-10T22:57:42.469Z,1.20
2019-03-10T23:00:15.483Z,1.13
2019-03-10T23:02:47.523Z,0.90
2019-03-10T23:05:18.121Z,0.90
2019-03-10T23:07:48.555Z,1.20
2019-03-10T23:10:19.168Z,1.30
2019-03-10T23:12:49.713Z,1.70
2019-03-10T23:15:20.104Z,1.60
2019-03-10T23:17:50.675Z,1.43
2019-03-10T23:20:21.261Z,1.40
2019-03-10T23:22:51.764Z,1.60
2019-03-10T23:25:22.294Z,1.00
2019-03-10T23:27:52.906Z,1.20
2019-03-10T23:30:23.458Z,1.37
2019-03-10T23:32:54.070Z,1.30
2019-03-10T23:35:24.670Z,1.50
2019-03-10T23:37:55.208Z,1.87
2019-03-10T23:40:25.733Z,1.60
2019-03-10T23:42:56.772Z,1.33
2019-03-10T23:45:27.310Z,1.50
2019-03-10T23:47:57.961Z,1.47
2019-03-10T23:50:28.624Z,1.93
2019-03-10T23:52:59.141Z,1.70
2019-03-10T23:55:30.727Z,2.00
2019-03-10T23:58:01.246Z,1.97
